WetterOnline ( https://www.wetteronline.at )

Wetter aktuell Greifswalder Bodden

Aktuelles Wetter: Greifswalder Oie (12m)

6-stündlich | Neueste Meldungen
Ortszeit Temperatur Wetter
Fr, 20.05. 14:00 15.9° C bedeckt
Fr, 20.05. 8:00 15.7° C bedeckt
Fr, 20.05. 2:00 16.8° C wolkig
Do, 19.05. 20:00 19.2° C wolkig
Do, 19.05. 14:00 21.1° C fast wolkenlos
Do, 19.05. 8:00 15.1° C bewölkt
Do, 19.05. 2:00 14.8° C wolkig
Mi, 18.05. 20:00 14.9° C wolkenlos
Ortszeit Temperatur Wetter
Fr, 20.05. 19:00 14.3° C wolkig
Fr, 20.05. 18:50 14.3° C wolkig
Fr, 20.05. 18:40 14.7° C bedeckt
Fr, 20.05. 18:30 14.5° C bedeckt
Fr, 20.05. 18:20 14.5° C bedeckt
Fr, 20.05. 18:10 16.0° C bedeckt
Fr, 20.05. 18:00 15.4° C bedeckt
Fr, 20.05. 17:30 15.2° C bedeckt
Fr, 20.05. 17:00 15.9° C wolkig
Fr, 20.05. 16:30 16.7° C wolkig
Fr, 20.05. 16:00 17.2° C leicht bewölkt
Ortszeit Relative Feuchte Sichtweite
Fr, 20.05. 14:00 76% 40 km
Fr, 20.05. 8:00 90% 16 km
Fr, 20.05. 2:00 94% 28 km
Do, 19.05. 20:00 68% 45 km
Do, 19.05. 14:00 60% 50 km
Do, 19.05. 8:00 67% 55 km
Do, 19.05. 2:00 71% 45 km
Mi, 18.05. 20:00 72% 50 km
Ortszeit Relative Feuchte Sichtweite
Fr, 20.05. 19:00 83% 35 km
Fr, 20.05. 18:50 83% -
Fr, 20.05. 18:40 82% -
Fr, 20.05. 18:30 84% 35 km
Fr, 20.05. 18:20 84% -
Fr, 20.05. 18:10 77% -
Fr, 20.05. 18:00 81% 60 km
Fr, 20.05. 17:30 81% 45 km
Fr, 20.05. 17:00 79% 50 km
Fr, 20.05. 16:30 76% 40 km
Fr, 20.05. 16:00 72% >70 km
Ortszeit Niederschlagsmenge Niederschlagsart
Fr, 20.05. 14:00 0.0 l/m2 in 6 Std. -
Fr, 20.05. 8:00 0.0 l/m2 in 12 Std. -
Fr, 20.05. 2:00 0.0 l/m2 in 6 Std. -
Do, 19.05. 20:00 0.0 l/m2 in 12 Std. -
Do, 19.05. 14:00 0.0 l/m2 in 6 Std. -
Do, 19.05. 8:00 0.0 l/m2 in 12 Std. -
Do, 19.05. 2:00 0.0 l/m2 in 6 Std. -
Mi, 18.05. 20:00 0.0 l/m2 in 12 Std. -
Ortszeit Niederschlagsmenge Niederschlagsart
Fr, 20.05. 19:00 0.0 l/m2 in 1 Std. -
Fr, 20.05. 18:50 keine Meldung -
Fr, 20.05. 18:40 keine Meldung -
Fr, 20.05. 18:30 0.0 l/m2 in 1 Std. -
Fr, 20.05. 18:20 keine Meldung -
Fr, 20.05. 18:10 keine Meldung -
Fr, 20.05. 18:00 0.0 l/m2 in 1 Std. -
Fr, 20.05. 17:30 0.0 l/m2 in 1 Std. -
Fr, 20.05. 17:00 0.0 l/m2 in 1 Std. -
Fr, 20.05. 16:30 0.0 l/m2 in 1 Std. -
Fr, 20.05. 16:00 0.0 l/m2 in 1 Std. -
Ortszeit Stärke Spitze Richtung
km/h Bft. km/h Grad Sektor
Fr, 20.05. 14:00 30 5 52 280° W
Fr, 20.05. 8:00 31 5 46 290° W
Fr, 20.05. 2:00 29 5 86 250° W
Do, 19.05. 20:00 17 3 30 160° S
Do, 19.05. 14:00 13 3 30 150° SO
Do, 19.05. 8:00 13 3 26 170° S
Do, 19.05. 2:00 14 3 25 160° S
Mi, 18.05. 20:00 19 3 30 120° SO
Ortszeit Stärke Spitze Richtung
km/h Bft. km/h Grad Sektor
Fr, 20.05. 19:00 11 2 22 30° NO
Fr, 20.05. 18:50 11 2 - 30° NO
Fr, 20.05. 18:40 11 2 - 30° NO
Fr, 20.05. 18:30 13 3 20 10° N
Fr, 20.05. 18:20 13 3 - 10° N
Fr, 20.05. 18:10 14 3 - 350° N
Fr, 20.05. 18:00 14 3 22 350° N
Fr, 20.05. 17:30 17 3 22 350° N
Fr, 20.05. 17:00 17 3 24 350° N
Fr, 20.05. 16:30 15 3 24 340° N
Fr, 20.05. 16:00 22 4 31 310° NW
Ortszeit Untergrenze Bedeckung Gattung
total tief tief mittel hoch
Fr, 20.05. 14:00 780 m 8/8 8/8 - - -
Fr, 20.05. 8:00 300 m 8/8 8/8 - - -
Fr, 20.05. 2:00 8700 m 8/8 0/8 - - -
Do, 19.05. 20:00 2100 m 7/8 3/8 - - -
Do, 19.05. 14:00 7800 m 1/8 0/8 - - -
Do, 19.05. 8:00 3600 m 8/8 7/8 - - -
Do, 19.05. 2:00 10500 m 7/8 0/8 - - -
Mi, 18.05. 20:00 - 0/8 0/8 - - -
Ortszeit Bedeckungsgrad in Achtel und Wolkenuntergrenze
Fr, 20.05. 19:00 1(5100m) 3(5700m) 5(6900m)
Fr, 20.05. 18:50 1(5100m) 3(5700m) 5(6900m)
Fr, 20.05. 18:40 8
Fr, 20.05. 18:30 7(4500m) 8(6900m)
Fr, 20.05. 18:20 7(4500m) 8(6900m)
Fr, 20.05. 18:10 8
Fr, 20.05. 18:00 7(4500m) 8(4800m)
Fr, 20.05. 17:30 7(5700m) 8(6000m)
Fr, 20.05. 17:00 1(630m) 7(6300m)
Fr, 20.05. 16:30 6(6600m) 6(7200m)
Fr, 20.05. 16:00 4(7500m)
Ortszeit Luftdruck NN (hPa) Tendenz (hPa in 3 Std.)
Fr, 20.05. 14:00 1018 - 0,3
Fr, 20.05. 8:00 1018 + 1,3
Fr, 20.05. 2:00 1015 + 0,3
Do, 19.05. 20:00 1015 - 1,7
Do, 19.05. 14:00 1019 - 1,7
Do, 19.05. 8:00 1021 - 0,4
Do, 19.05. 2:00 1022 - 0,9
Mi, 18.05. 20:00 1023 - 1,4
Ortszeit Luftdruck NN (hPa) Tendenz (hPa in 3 Std.)
Fr, 20.05. 19:00 1015 - 2,4
Fr, 20.05. 18:50 1015 keine Meldung
Fr, 20.05. 18:40 1015 keine Meldung
Fr, 20.05. 18:30 1015 - 2,6
Fr, 20.05. 18:20 1015 keine Meldung
Fr, 20.05. 18:10 1015 keine Meldung
Fr, 20.05. 18:00 1016 - 2,4
Fr, 20.05. 17:30 1016 - 2,5
Fr, 20.05. 17:00 1017 - 1,5
Fr, 20.05. 16:30 1017 - 1,2
Fr, 20.05. 16:00 1017 - 1,3
Ortszeit Schneehöhe (cm)
Fr, 20.05. 14:00 0
Fr, 20.05. 8:00 0
Fr, 20.05. 2:00 0
Do, 19.05. 20:00 0
Do, 19.05. 14:00 0
Do, 19.05. 8:00 0
Do, 19.05. 2:00 0
Mi, 18.05. 20:00 0
Ortszeit Schneehöhe (cm)
Fr, 20.05. 19:00 0
Fr, 20.05. 18:50 0
Fr, 20.05. 18:40 0
Fr, 20.05. 18:30 0
Fr, 20.05. 18:20 0
Fr, 20.05. 18:10 0
Fr, 20.05. 18:00 0
Fr, 20.05. 17:30 0
Fr, 20.05. 17:00 0
Fr, 20.05. 16:30 0
Fr, 20.05. 16:00 0
Link zu dieser Seite / Seite empfehlen

Das Wetter in ...